King City, Oregon
Current Conditions -  °F | °C
As of 6:53 AM on Monday 22 Dec 2014 (Local Time) from KHIO Reporting Station
Moderate Fog Moderate Fog  
Wind Chill: 47°   Ceiling: 200
Heat Index: 49°   Visibility: 0.5mi
Dew Point: 49°   Wind: 5mph
Humidity: 100%   Direction: 330°NNW
Pressure: 30.31"   Gusts: NA
Location:  45.4077°N, 122.809°W
Report Text: KHIO 221453Z 33004KT 1/2SM R13/2000V5500FT FG VV002 09/09 A3031 RMK AO2 SLP263 T00940094 53015
Loading
Personal Weather Stations






























Interactive Weather Map New forecast layout! Learn more

10-Day Weather Forecast

Advertisements
Track Severe Weather on mobile